Hutchinson, MN

3:45 PM CDT on May 24, 2015 (GMT -0500)
Hutchinson Municipal-Butler | | Change Station
CLOSE
Current Station
Airport
Location: Hutchinson,
Elevation: 1060 ft
Nearby Weather Stations

Elev 1060 ft 44.86 °N, 94.39 °W | Updated 13 minutes ago

Rain
Rain
60 °F
Feels Like 60 °F
N
12
Wind Variable Wind from ENE

Today
High -- | Low -- °F
--% Chance of Precip.
Yesterday
High -- | Low -- °F
Precip. -- in
5:40 AM 8:49 PM
Waxing Crescent, 42% visible
Pressure 29.93 in
Visibility 5.0 miles
Clouds Scattered Clouds 900 ft
Overcast 1400 ft
Dew Point 59 °F
Humidity 96%
Rainfall 0.30 in
Snow Depth Not available.
UV 2 out of 12
Pollen 5.60 out of 12
Air Quality Not available.
Flu Activity Sporadic
METAR KHCD 242032Z AUTO 07010KT 5SM RA SCT009 OVC014 16/15 A2993 RMK AO2 P0006 T01560150

More Conditions Fewer Conditions

Pressure 29.93 in
Visibility 5.0 miles
Clouds Scattered Clouds 900 ft
Overcast 1400 ft
Dew Point 59 °F
Humidity 96%
Rainfall 0.30 in
Snow Depth Not available.
UV 2 out of 12
Pollen 5.60 out of 12
Air Quality Not available.
Flu Activity Sporadic
METAR KHCD 242032Z AUTO 07010KT 5SM RA SCT009 OVC014 16/15 A2993 RMK AO2 P0006 T01560150

More Conditions Fewer Conditions

10-Day Weather Forecast

Almanac

Astronomy

May. 24, 2015 Rise Set
Actual Time
Civil Twilight
Nautical Twilight
Astronomical Twilight
Moon
Length of Visible Light
Length of Day
Tomorrow will be .
, % of the Moon is Illuminated

Today's Extremes

State Highs State Lows

Community

WunderPhotos

Upload Photos

1,823,862 photos uploaded!

WunderBlogs® & News

Nearby

Air Quality

  Air Quality AQ Index Pollutant
Not available.

Snow Depth

Station Depth Elevation

Earthquake Activity

City Distance Mag. Time & Date
Minimum magnitude displayed is 2.5.

Coastal Water Temperatures

Place Temperature

Stations

Nearby Weather Stations

Station Location Temp. Windchill Dew Point Humidity Wind Precip. Elev Updated Type